Rubiataba, Brazil
Current Conditions -  °F | °C
As of 5:00 AM on Thursday 23 Oct 2014 (Local Time) from SBAN Reporting Station
Scattered Clouds Scattered Clouds  
Wind Chill: 66°   Ceiling: Unl
Heat Index: 66°   Visibility: 6mi
Dew Point: 61°   Wind: 5mph
Humidity: 83%   Direction: 20°NNE
Pressure: 30.09"   Gusts: NA
Location:  15.16°S, 49.8°W
Report Text: SBAN 230700Z 02004KT 9999 FEW030 SCT100 19/16 Q1019
Loading
Personal Weather Stations






























Interactive Weather Map
Tropical Storm Tracking
New forecast layout! Learn more

10-Day Weather Forecast

Advertisements
Track Severe Weather on mobile